Terminal Aerodrome Forecast
Issued by NWS Northern Indiana

Home | Current Version | Previous Version | Graphics & Text | Print | Product List | Glossary On
Versions: 1 2 3 4 5 6 7 8 9 10 11 12 13 14 15
993
FTUS43 KIWX 211734
TAFFWA
TAF
KFWA 211734Z 2118/2218 VRB04KT P6SM SCT035 BKN200
     FM220400 16010KT P6SM VCTS BKN050CB
      TEMPO 2205/2209 3SM TSRA OVC035CB
     FM220900 17010KT 6SM SHRA VCTS SCT015 OVC040CB
     FM221400 23008KT P6SM BKN050=

USA.gov is the U.S. government's official web portal to all federal, state and local government web resources and services.